createdAt,value
2019-03-23T00:01:17.284Z,33.50
2019-03-23T00:03:48.910Z,36.53
2019-03-23T00:06:30.432Z,30.40
2019-03-23T00:08:54.031Z,29.73
2019-03-23T00:11:25.706Z,31.40
2019-03-23T00:13:57.286Z,33.60
2019-03-23T00:16:29.063Z,27.73
2019-03-23T00:19:00.664Z,29.90
2019-03-23T00:21:32.223Z,33.70
2019-03-23T00:24:03.943Z,33.20
2019-03-23T00:26:35.568Z,35.13
2019-03-23T00:29:07.245Z,37.90
2019-03-23T00:31:38.854Z,35.83
2019-03-23T00:34:10.593Z,33.67
2019-03-23T00:36:42.357Z,38.70
2019-03-23T00:39:13.972Z,32.73
2019-03-23T00:41:45.625Z,30.80
2019-03-23T00:44:17.241Z,35.43
2019-03-23T00:46:48.840Z,31.27
2019-03-23T00:49:20.444Z,31.00
2019-03-23T00:51:52.012Z,35.00
2019-03-23T00:54:23.660Z,29.03
2019-03-23T00:56:55.300Z,32.10
2019-03-23T00:59:27.027Z,31.33
2019-03-23T01:01:59.807Z,33.13
2019-03-23T01:04:31.379Z,30.00
2019-03-23T01:07:03.223Z,30.97
2019-03-23T01:09:34.807Z,32.37
2019-03-23T01:12:06.442Z,30.13
2019-03-23T01:14:38.094Z,29.97
2019-03-23T01:17:09.740Z,31.77
2019-03-23T01:19:41.426Z,27.27
2019-03-23T01:22:13.002Z,26.53
2019-03-23T01:24:45.717Z,26.23
2019-03-23T01:27:17.298Z,28.77
2019-03-23T01:29:48.915Z,26.60
2019-03-23T01:32:20.576Z,28.53
2019-03-23T01:34:52.130Z,34.47
2019-03-23T01:37:23.756Z,24.50
2019-03-23T01:39:55.314Z,31.87
2019-03-23T01:42:26.856Z,29.57
2019-03-23T01:44:58.503Z,31.20
2019-03-23T01:47:30.331Z,27.53
2019-03-23T01:50:02.952Z,28.43
2019-03-23T01:52:34.508Z,37.07
2019-03-23T01:55:06.651Z,25.50
2019-03-23T01:57:38.400Z,30.53
2019-03-23T02:00:10.403Z,30.40
2019-03-23T02:02:42.059Z,30.77
2019-03-23T02:05:13.879Z,28.63
2019-03-23T02:07:45.466Z,27.53
2019-03-23T02:10:17.263Z,28.60
2019-03-23T02:12:49.054Z,29.47
2019-03-23T02:15:20.643Z,27.53
2019-03-23T02:17:52.172Z,30.77
2019-03-23T02:20:23.903Z,29.60
2019-03-23T02:22:55.436Z,25.97
2019-03-23T02:25:27.080Z,32.53
2019-03-23T02:27:58.808Z,24.57
2019-03-23T02:30:30.380Z,27.10
2019-03-23T02:33:02.048Z,26.90
2019-03-23T02:35:33.682Z,26.57
2019-03-23T02:38:05.319Z,24.47
2019-03-23T02:40:37.591Z,27.07
2019-03-23T02:43:09.250Z,25.33
2019-03-23T02:45:40.913Z,20.77
2019-03-23T02:48:12.532Z,24.00
2019-03-23T02:50:45.262Z,31.80
2019-03-23T02:53:16.914Z,23.73
2019-03-23T02:55:48.547Z,30.00
2019-03-23T02:58:20.102Z,26.53
2019-03-23T03:00:52.012Z,25.20
2019-03-23T03:03:23.630Z,25.30
2019-03-23T03:05:55.294Z,26.20
2019-03-23T03:08:27.258Z,28.87
2019-03-23T03:10:59.002Z,22.60
2019-03-23T03:13:30.633Z,25.37
2019-03-23T03:16:02.304Z,24.80
2019-03-23T03:18:33.952Z,23.47
2019-03-23T03:21:05.731Z,23.77
2019-03-23T03:23:37.318Z,28.80
2019-03-23T03:26:08.859Z,22.50
2019-03-23T03:28:40.425Z,22.23
2019-03-23T03:31:12.060Z,24.43
2019-03-23T03:33:43.708Z,18.97
2019-03-23T03:36:15.312Z,20.13
2019-03-23T03:38:47.027Z,22.70
2019-03-23T03:41:18.727Z,20.63
2019-03-23T03:43:50.449Z,20.77
2019-03-23T03:46:22.091Z,20.50
2019-03-23T03:48:53.888Z,21.20
2019-03-23T03:51:25.627Z,21.50
2019-03-23T03:53:57.284Z,23.63
2019-03-23T03:56:28.916Z,23.10
2019-03-23T03:59:00.567Z,22.70
2019-03-23T04:01:32.123Z,22.00
2019-03-23T04:04:03.879Z,19.87
2019-03-23T04:06:35.439Z,23.17
2019-03-23T04:09:07.833Z,19.80
2019-03-23T04:11:40.520Z,21.60
2019-03-23T04:14:12.106Z,20.63
2019-03-23T04:16:43.721Z,18.20
2019-03-23T04:19:15.377Z,19.87
2019-03-23T04:21:47.009Z,17.50
2019-03-23T04:24:18.682Z,17.47
2019-03-23T04:26:50.275Z,17.70
2019-03-23T04:29:23.072Z,20.00
2019-03-23T04:31:54.687Z,17.90
2019-03-23T04:34:26.232Z,18.50
2019-03-23T04:36:57.895Z,17.27
2019-03-23T04:39:29.435Z,21.13
2019-03-23T04:42:00.989Z,22.73
2019-03-23T04:44:32.526Z,19.60
2019-03-23T04:47:04.188Z,19.37
2019-03-23T04:49:36.115Z,19.70
2019-03-23T04:52:07.763Z,25.97
2019-03-23T04:54:39.344Z,24.27
2019-03-23T04:57:10.899Z,20.30
2019-03-23T04:59:42.504Z,16.57
2019-03-23T05:02:14.258Z,21.33
2019-03-23T05:04:45.875Z,19.07
2019-03-23T05:07:17.441Z,16.10
2019-03-23T05:09:49.018Z,17.70
2019-03-23T05:12:20.579Z,18.13
2019-03-23T05:14:52.146Z,17.97
2019-03-23T05:17:23.879Z,18.83
2019-03-23T05:19:55.517Z,16.60
2019-03-23T05:22:27.224Z,16.47
2019-03-23T05:24:58.863Z,14.53
2019-03-23T05:27:30.481Z,18.37
2019-03-23T05:30:02.044Z,14.87
2019-03-23T05:32:33.851Z,17.90
2019-03-23T05:35:06.038Z,18.53
2019-03-23T05:37:38.645Z,17.70
2019-03-23T05:40:11.263Z,17.17
2019-03-23T05:42:42.893Z,15.07
2019-03-23T05:45:14.589Z,14.13
2019-03-23T05:47:46.149Z,18.63
2019-03-23T05:50:17.699Z,16.20
2019-03-23T05:52:49.353Z,16.67
2019-03-23T05:55:20.927Z,23.10
2019-03-23T05:57:52.571Z,14.13
2019-03-23T06:00:24.159Z,15.80
2019-03-23T06:02:55.715Z,16.80
2019-03-23T06:05:27.296Z,17.60
2019-03-23T06:07:58.920Z,13.50
2019-03-23T06:10:30.571Z,20.33
2019-03-23T06:13:02.119Z,12.57
2019-03-23T06:15:33.752Z,13.47
2019-03-23T06:18:05.719Z,15.23
2019-03-23T06:20:37.326Z,16.07
2019-03-23T06:23:09.131Z,15.80
2019-03-23T06:25:40.782Z,12.97
2019-03-23T06:28:12.472Z,12.60
2019-03-23T06:30:44.160Z,16.10
2019-03-23T06:33:15.704Z,12.53
2019-03-23T06:35:47.433Z,12.70
2019-03-23T06:38:19.057Z,12.90
2019-03-23T06:40:50.726Z,12.63
2019-03-23T06:43:22.311Z,13.17
2019-03-23T06:45:53.950Z,13.23
2019-03-23T06:48:26.544Z,12.10
2019-03-23T06:50:58.104Z,13.50
2019-03-23T06:53:29.660Z,12.60
2019-03-23T06:56:01.391Z,12.60
2019-03-23T06:58:33.114Z,12.50
2019-03-23T07:01:04.880Z,12.17
2019-03-23T07:03:37.452Z,12.23
2019-03-23T07:06:09.090Z,14.00
2019-03-23T07:08:40.660Z,12.87
2019-03-23T07:11:12.392Z,11.73
2019-03-23T07:13:44.096Z,11.83
2019-03-23T07:16:15.794Z,11.27
2019-03-23T07:18:47.438Z,11.20
2019-03-23T07:21:20.155Z,11.90
2019-03-23T07:23:51.838Z,12.77
2019-03-23T07:26:23.403Z,11.30
2019-03-23T07:28:54.961Z,12.03
2019-03-23T07:31:26.537Z,14.23
2019-03-23T07:33:58.206Z,12.63
2019-03-23T07:36:29.863Z,11.53
2019-03-23T07:39:01.556Z,12.50
2019-03-23T07:41:33.561Z,12.13
2019-03-23T07:44:05.375Z,11.63
2019-03-23T07:46:36.995Z,14.87
2019-03-23T07:49:08.641Z,12.13
2019-03-23T07:51:40.275Z,11.83
2019-03-23T07:54:11.842Z,11.57
2019-03-23T07:56:43.476Z,11.67
2019-03-23T07:59:15.129Z,12.47
2019-03-23T08:01:46.762Z,11.70
2019-03-23T08:04:18.571Z,11.83
2019-03-23T08:06:50.203Z,11.97
2019-03-23T08:09:23.566Z,12.20
2019-03-23T08:11:55.392Z,11.97
2019-03-23T08:14:27.280Z,12.13
2019-03-23T08:16:58.971Z,12.20
2019-03-23T08:19:30.535Z,11.37
2019-03-23T08:22:02.159Z,11.43
2019-03-23T08:24:33.800Z,11.37
2019-03-23T08:27:05.611Z,11.03
2019-03-23T08:29:37.275Z,12.43
2019-03-23T08:32:09.011Z,11.90
2019-03-23T08:34:40.664Z,11.80
2019-03-23T08:37:12.327Z,11.00
2019-03-23T08:39:48.368Z,11.10
2019-03-23T08:42:17.818Z,11.88
2019-03-23T08:44:50.041Z,12.73
2019-03-23T08:47:22.267Z,11.43
2019-03-23T08:49:54.536Z,13.43
2019-03-23T08:52:28.910Z,11.35
2019-03-23T08:55:00.591Z,12.10
2019-03-23T08:57:32.756Z,11.20
2019-03-23T09:00:06.413Z,11.55
2019-03-23T09:02:40.323Z,11.63
2019-03-23T09:05:12.712Z,11.30
2019-03-23T09:07:44.980Z,12.68
2019-03-23T09:10:17.162Z,10.95
2019-03-23T09:12:50.651Z,11.85
2019-03-23T09:15:22.783Z,10.65
2019-03-23T09:17:54.943Z,11.50
2019-03-23T09:20:29.383Z,14.00
2019-03-23T09:23:02.033Z,11.43
2019-03-23T09:25:34.256Z,12.95
2019-03-23T09:28:06.478Z,12.70
2019-03-23T09:30:38.063Z,11.77
2019-03-23T09:33:09.862Z,12.90
2019-03-23T09:35:42.087Z,12.03
2019-03-23T09:38:13.747Z,13.80
2019-03-23T09:40:45.371Z,11.20
2019-03-23T09:43:17.506Z,11.25
2019-03-23T09:45:49.129Z,12.23
2019-03-23T09:48:20.695Z,11.87
2019-03-23T09:50:52.313Z,11.37
2019-03-23T09:53:24.036Z,13.37
2019-03-23T09:55:55.592Z,11.40
2019-03-23T09:58:27.252Z,10.80
2019-03-23T10:00:58.903Z,11.10
2019-03-23T10:03:30.538Z,11.70
2019-03-23T10:06:02.186Z,11.30
2019-03-23T10:08:33.898Z,11.30
2019-03-23T10:11:05.530Z,11.30
2019-03-23T10:13:37.673Z,11.08
2019-03-23T10:16:09.298Z,11.80
2019-03-23T10:18:40.883Z,14.10
2019-03-23T10:21:12.533Z,11.70
2019-03-23T10:23:44.212Z,11.30
2019-03-23T10:26:15.843Z,11.30
2019-03-23T10:28:47.427Z,12.67
2019-03-23T10:31:19.064Z,14.27
2019-03-23T10:33:50.637Z,13.40
2019-03-23T10:36:22.412Z,13.83
2019-03-23T10:38:54.043Z,11.57
2019-03-23T10:41:25.620Z,12.40
2019-03-23T10:43:57.177Z,11.90
2019-03-23T10:46:29.820Z,11.37
2019-03-23T10:49:01.474Z,12.30
2019-03-23T10:51:33.224Z,11.90
2019-03-23T10:54:04.954Z,13.60
2019-03-23T10:56:36.595Z,13.27
2019-03-23T10:59:08.821Z,14.07
2019-03-23T11:01:41.051Z,12.45
2019-03-23T11:04:13.235Z,12.88
2019-03-23T11:06:45.440Z,13.75
2019-03-23T11:09:17.623Z,12.58
2019-03-23T11:11:49.866Z,14.90
2019-03-23T11:14:22.227Z,15.83
2019-03-23T11:16:54.455Z,14.28
2019-03-23T11:19:26.676Z,13.83
2019-03-23T11:21:58.839Z,14.07
2019-03-23T11:24:31.070Z,13.10
2019-03-23T11:27:03.383Z,13.70
2019-03-23T11:29:35.518Z,13.70
2019-03-23T11:32:07.749Z,13.65
2019-03-23T11:34:39.310Z,13.43
2019-03-23T11:37:10.947Z,13.83
2019-03-23T11:39:42.739Z,14.30
2019-03-23T11:42:14.316Z,13.20
2019-03-23T11:44:45.913Z,13.77
2019-03-23T11:47:17.704Z,13.90
2019-03-23T11:49:49.359Z,16.23
2019-03-23T11:52:20.940Z,16.20
2019-03-23T11:54:52.510Z,16.10
2019-03-23T11:57:24.088Z,17.17
2019-03-23T11:59:55.655Z,17.90
2019-03-23T12:02:27.207Z,16.97
2019-03-23T12:04:58.811Z,17.00
2019-03-23T12:07:30.518Z,17.50
2019-03-23T12:10:02.092Z,16.97
2019-03-23T12:12:33.711Z,17.30
2019-03-23T12:15:06.076Z,17.30
2019-03-23T12:17:37.823Z,30.03
2019-03-23T12:20:09.684Z,19.80
2019-03-23T12:22:41.335Z,18.83
2019-03-23T12:25:12.969Z,27.47
2019-03-23T12:27:44.627Z,16.63
2019-03-23T12:30:17.227Z,19.13
2019-03-23T12:32:48.963Z,25.53
2019-03-23T12:35:22.307Z,17.37
2019-03-23T12:37:54.864Z,20.13
2019-03-23T12:40:26.419Z,25.40
2019-03-23T12:42:58.035Z,20.30
2019-03-23T12:45:29.679Z,23.30
2019-03-23T12:48:01.312Z,19.13
2019-03-23T12:50:34.062Z,18.20
2019-03-23T12:53:05.734Z,19.60
2019-03-23T12:55:37.404Z,19.63
2019-03-23T12:58:09.051Z,17.27
2019-03-23T13:00:40.659Z,19.40
2019-03-23T13:03:12.336Z,19.80
2019-03-23T13:05:43.996Z,19.10
2019-03-23T13:08:15.671Z,19.37
2019-03-23T13:10:47.306Z,20.50
2019-03-23T13:13:18.983Z,16.53
2019-03-23T13:15:50.700Z,20.63
2019-03-23T13:18:27.140Z,19.20
2019-03-23T13:20:55.735Z,20.53
2019-03-23T13:23:27.434Z,19.17
2019-03-23T13:25:59.111Z,18.20
2019-03-23T13:28:30.659Z,17.93
2019-03-23T13:31:02.243Z,18.27
2019-03-23T13:33:33.892Z,18.47
2019-03-23T13:36:06.087Z,18.57
2019-03-23T13:38:37.729Z,19.53
2019-03-23T13:41:09.512Z,19.10
2019-03-23T13:43:41.086Z,18.73
2019-03-23T13:46:12.714Z,16.80
2019-03-23T13:48:44.298Z,18.43
2019-03-23T13:51:15.956Z,19.83
2019-03-23T13:53:47.622Z,20.17
2019-03-23T13:56:19.289Z,16.83
2019-03-23T13:58:51.037Z,18.23
2019-03-23T14:01:22.601Z,20.57
2019-03-23T14:03:54.175Z,18.40
2019-03-23T14:06:25.834Z,20.03
2019-03-23T14:08:57.558Z,20.00
2019-03-23T14:11:29.256Z,20.00
2019-03-23T14:14:00.879Z,17.97
2019-03-23T14:16:32.458Z,18.00
2019-03-23T14:19:04.078Z,19.00
2019-03-23T14:21:35.698Z,22.53
2019-03-23T14:24:07.288Z,18.33
2019-03-23T14:26:38.873Z,21.40
2019-03-23T14:29:10.511Z,27.20
2019-03-23T14:31:42.260Z,21.30
2019-03-23T14:34:13.895Z,18.90
2019-03-23T14:36:45.606Z,20.93
2019-03-23T14:39:17.156Z,19.53
2019-03-23T14:41:48.811Z,24.03
2019-03-23T14:44:20.382Z,21.07
2019-03-23T14:46:52.050Z,21.13
2019-03-23T14:49:23.689Z,20.53
2019-03-23T14:51:55.263Z,21.77
2019-03-23T14:54:26.935Z,23.70
2019-03-23T14:56:58.616Z,21.57
2019-03-23T14:59:30.176Z,23.00
2019-03-23T15:02:01.825Z,20.80
2019-03-23T15:04:33.502Z,24.83
2019-03-23T15:07:05.145Z,22.67
2019-03-23T15:09:36.816Z,23.60
2019-03-23T15:12:15.103Z,23.27
2019-03-23T15:14:41.672Z,24.30
2019-03-23T15:17:13.235Z,24.80
2019-03-23T15:19:44.809Z,24.03
2019-03-23T15:22:16.372Z,24.63
2019-03-23T15:24:47.939Z,25.80
2019-03-23T15:27:19.646Z,23.97
2019-03-23T15:29:51.251Z,22.93
2019-03-23T15:32:22.824Z,26.70
2019-03-23T15:34:54.438Z,32.03
2019-03-23T15:37:26.080Z,31.20
2019-03-23T15:39:57.641Z,35.30
2019-03-23T15:42:29.280Z,33.70
2019-03-23T15:45:01.041Z,32.83
2019-03-23T15:47:32.700Z,34.30
2019-03-23T15:50:04.930Z,34.30
2019-03-23T15:52:36.578Z,37.30
2019-03-23T15:55:10.012Z,36.57
2019-03-23T15:57:41.608Z,32.73
2019-03-23T16:00:14.211Z,31.90
2019-03-23T16:02:45.860Z,38.13
2019-03-23T16:05:17.441Z,37.07
2019-03-23T16:07:49.068Z,37.73
2019-03-23T16:10:20.670Z,35.10
2019-03-23T16:12:52.311Z,30.73
2019-03-23T16:15:23.875Z,36.23
2019-03-23T16:17:55.514Z,36.43
2019-03-23T16:20:27.087Z,31.07
2019-03-23T16:22:58.640Z,31.80
2019-03-23T16:25:30.295Z,30.33
2019-03-23T16:28:01.951Z,37.40
2019-03-23T16:30:34.226Z,35.57
2019-03-23T16:33:05.911Z,37.47
2019-03-23T16:35:37.477Z,39.33
2019-03-23T16:38:09.144Z,41.33
2019-03-23T16:40:40.768Z,38.53
2019-03-23T16:43:12.346Z,38.40
2019-03-23T16:45:44.055Z,39.20
2019-03-23T16:48:15.706Z,40.07
2019-03-23T16:50:47.289Z,42.80
2019-03-23T16:53:18.859Z,39.13
2019-03-23T16:55:50.521Z,43.13
2019-03-23T16:58:22.084Z,43.47
2019-03-23T17:00:53.762Z,41.27
2019-03-23T17:03:25.453Z,46.80
2019-03-23T17:05:57.095Z,55.20
2019-03-23T17:08:28.767Z,62.60
2019-03-23T17:11:00.391Z,74.97
2019-03-23T17:13:32.033Z,66.77
2019-03-23T17:16:03.671Z,66.40
2019-03-23T17:18:35.280Z,64.97
2019-03-23T17:21:06.886Z,64.33
2019-03-23T17:23:38.531Z,61.37
2019-03-23T17:26:11.290Z,62.60
2019-03-23T17:28:43.048Z,67.13
2019-03-23T17:31:14.724Z,69.97
2019-03-23T17:33:46.262Z,75.13
2019-03-23T17:36:17.847Z,68.43
2019-03-23T17:38:49.492Z,64.80
2019-03-23T17:41:21.071Z,73.07
2019-03-23T17:43:52.656Z,69.63
2019-03-23T17:46:24.308Z,64.30
2019-03-23T17:48:55.955Z,68.83
2019-03-23T17:51:27.541Z,78.83
2019-03-23T17:53:59.163Z,69.20
2019-03-23T17:56:30.800Z,72.13
2019-03-23T17:59:02.372Z,72.43
2019-03-23T18:01:34.105Z,76.30
2019-03-23T18:04:05.709Z,69.17
2019-03-23T18:06:37.443Z,76.60
2019-03-23T18:09:09.337Z,71.87
2019-03-23T18:11:40.990Z,72.20
2019-03-23T18:14:12.566Z,74.57
2019-03-23T18:16:44.191Z,74.30
2019-03-23T18:19:15.768Z,72.53
2019-03-23T18:21:47.477Z,66.83
2019-03-23T18:24:19.130Z,72.70
2019-03-23T18:26:50.795Z,65.00
2019-03-23T18:29:22.514Z,65.80
2019-03-23T18:31:54.104Z,70.20
2019-03-23T18:34:25.759Z,75.50
2019-03-23T18:36:58.997Z,68.20
2019-03-23T18:39:30.595Z,70.53
2019-03-23T18:42:02.241Z,70.03
2019-03-23T18:44:34.099Z,70.97
2019-03-23T18:47:05.760Z,67.87
2019-03-23T18:49:37.470Z,66.33
2019-03-23T18:52:09.203Z,65.57
2019-03-23T18:54:40.769Z,64.30
2019-03-23T18:57:12.445Z,65.23
2019-03-23T18:59:44.106Z,63.47
2019-03-23T19:02:15.686Z,61.40
2019-03-23T19:04:49.610Z,59.33
2019-03-23T19:07:21.765Z,66.23
2019-03-23T19:09:53.369Z,57.77
2019-03-23T19:12:25.194Z,54.77
2019-03-23T19:14:56.791Z,64.77
2019-03-23T19:17:28.432Z,58.47
2019-03-23T19:20:00.082Z,57.80
2019-03-23T19:22:31.655Z,57.50
2019-03-23T19:25:03.216Z,61.67
2019-03-23T19:27:34.949Z,64.33
2019-03-23T19:30:07.258Z,57.33
2019-03-23T19:32:40.644Z,55.87
2019-03-23T19:35:12.676Z,59.33
2019-03-23T19:37:44.517Z,52.17
2019-03-23T19:40:16.389Z,51.10
2019-03-23T19:42:48.328Z,46.17
2019-03-23T19:45:20.004Z,46.07
2019-03-23T19:47:52.258Z,52.10
2019-03-23T19:50:24.838Z,48.90
2019-03-23T19:52:56.545Z,51.03
2019-03-23T19:55:28.203Z,44.47
2019-03-23T19:58:01.097Z,48.87
2019-03-23T20:00:32.831Z,53.20
2019-03-23T20:03:04.505Z,50.03
2019-03-23T20:05:36.226Z,49.93
2019-03-23T20:08:07.988Z,49.33
2019-03-23T20:10:39.707Z,57.00
2019-03-23T20:13:11.292Z,44.93
2019-03-23T20:15:43.067Z,49.57
2019-03-23T20:18:15.659Z,45.67
2019-03-23T20:20:48.503Z,51.43
2019-03-23T20:23:20.323Z,53.20
2019-03-23T20:25:51.894Z,52.50
2019-03-23T20:28:23.489Z,47.63
2019-03-23T20:30:55.756Z,52.20
2019-03-23T20:33:27.406Z,48.80
2019-03-23T20:36:00.392Z,52.50
2019-03-23T20:38:32.156Z,52.50
2019-03-23T20:41:04.018Z,58.43
2019-03-23T20:43:35.689Z,51.83
2019-03-23T20:46:08.645Z,53.57
2019-03-23T20:48:40.873Z,52.83
2019-03-23T20:51:13.125Z,53.10
2019-03-23T20:53:45.312Z,54.57
2019-03-23T20:56:17.271Z,55.10
2019-03-23T20:58:49.508Z,55.40
2019-03-23T21:01:22.502Z,56.73
2019-03-23T21:03:54.271Z,53.00
2019-03-23T21:06:25.888Z,53.70
2019-03-23T21:08:57.707Z,59.10
2019-03-23T21:11:30.551Z,51.17
2019-03-23T21:14:02.119Z,54.77
2019-03-23T21:16:33.803Z,65.03
2019-03-23T21:19:05.457Z,59.03
2019-03-23T21:21:37.085Z,55.27
2019-03-23T21:24:09.273Z,54.43
2019-03-23T21:26:40.850Z,53.93
2019-03-23T21:29:12.452Z,58.50
2019-03-23T21:31:44.100Z,62.43
2019-03-23T21:34:16.191Z,57.50
2019-03-23T21:36:47.775Z,56.40
2019-03-23T21:39:19.424Z,55.37
2019-03-23T21:41:51.071Z,54.70
2019-03-23T21:44:30.606Z,52.87
2019-03-23T21:46:56.014Z,56.63
2019-03-23T21:49:28.144Z,60.20
2019-03-23T21:51:59.810Z,54.43
2019-03-23T21:54:31.452Z,53.37
2019-03-23T21:57:03.284Z,51.17
2019-03-23T21:59:34.952Z,52.33
2019-03-23T22:02:06.605Z,56.23
2019-03-23T22:04:38.147Z,55.60
2019-03-23T22:07:09.809Z,56.57
2019-03-23T22:09:41.380Z,58.40
2019-03-23T22:12:13.043Z,60.73
2019-03-23T22:14:44.683Z,50.67
2019-03-23T22:17:16.435Z,58.03
2019-03-23T22:19:48.052Z,53.30
2019-03-23T22:22:19.651Z,52.73
2019-03-23T22:24:51.296Z,52.73
2019-03-23T22:27:23.055Z,46.20
2019-03-23T22:29:54.796Z,50.33
2019-03-23T22:32:26.375Z,51.90
2019-03-23T22:34:57.995Z,47.80
2019-03-23T22:37:29.578Z,46.73
2019-03-23T22:40:01.240Z,51.40
2019-03-23T22:42:34.143Z,52.43
2019-03-23T22:45:07.167Z,58.30
2019-03-23T22:47:38.875Z,56.27
2019-03-23T22:50:11.143Z,55.70
2019-03-23T22:52:42.720Z,50.47
2019-03-23T22:55:14.646Z,50.03
2019-03-23T22:57:46.208Z,49.77
2019-03-23T23:00:21.736Z,50.77
2019-03-23T23:02:54.996Z,45.77
2019-03-23T23:05:26.626Z,53.10
2019-03-23T23:07:58.517Z,56.27
2019-03-23T23:10:30.202Z,49.27
2019-03-23T23:13:01.919Z,50.77
2019-03-23T23:15:33.549Z,49.53
2019-03-23T23:18:05.326Z,54.23
2019-03-23T23:20:36.971Z,51.40
2019-03-23T23:23:08.981Z,47.43
2019-03-23T23:25:41.165Z,52.10
2019-03-23T23:28:13.188Z,46.67
2019-03-23T23:30:45.414Z,53.27
2019-03-23T23:33:17.007Z,44.70
2019-03-23T23:35:48.660Z,47.97
2019-03-23T23:38:20.333Z,47.40
2019-03-23T23:40:51.932Z,53.10
2019-03-23T23:43:23.689Z,49.90
2019-03-23T23:45:56.295Z,48.43
2019-03-23T23:48:28.349Z,48.80
2019-03-23T23:50:59.949Z,46.67
2019-03-23T23:53:31.547Z,53.30
2019-03-23T23:56:03.146Z,54.00
2019-03-23T23:58:34.732Z,45.90
